Time;durP1;ratioP1;P1;durP2;ratioP2;P2;SDS_P1;SDS_P2;PMS_P1;PMS_P2;Temp;Humidity;BMP_temperature;BMP_pressure;BME280_temperature;BME280_humidity;BME280_pressure;Samples;Min_cycle;Max_cycle;Signal;HPM_P1;HPM_P2
2021/12/07 00:00:48;;;;;;;26.67;17.50;;;;;;;;;;4978939;28;20239;-74
2021/12/07 00:03:16;;;;;;;30.90;17.90;;;;;;;;;;4994120;28;20601;-74
2021/12/07 00:05:44;;;;;;;28.93;18.27;;;;;;;;;;4994942;28;20225;-74
2021/12/07 00:08:10;;;;;;;29.87;18.10;;;;;;;;;;4999951;28;20220;-74
2021/12/07 00:10:38;;;;;;;32.47;18.43;;;;;;;;;;5011200;28;20247;-74
2021/12/07 00:13:06;;;;;;;31.73;18.87;;;;;;;;;;5010854;28;20249;-73
2021/12/07 00:15:33;;;;;;;29.10;17.87;;;;;;;;;;4994357;28;20236;-74
2021/12/07 00:18:06;;;;;;;27.17;17.80;;;;;;;;;;4994633;28;20870;-74
2021/12/07 00:20:31;;;;;;;27.47;17.77;;;;;;;;;;5009962;28;20243;-74
2021/12/07 00:23:01;;;;;;;28.93;18.70;;;;;;;;;;4985993;28;20225;-74
2021/12/07 00:25:29;;;;;;;28.67;18.60;;;;;;;;;;4993697;28;20216;-75
2021/12/07 00:27:55;;;;;;;29.20;19.07;;;;;;;;;;4977747;28;20441;-74
2021/12/07 00:30:30;;;;;;;29.07;18.27;;;;;;;;;;5002844;28;20224;-74
2021/12/07 00:33:31;;;;;;;27.30;18.33;;;;;;;;;;5011013;28;20220;-74
2021/12/07 00:35:42;;;;;;;27.83;17.97;;;;;;;;;;5009487;28;20224;-74
2021/12/07 00:38:11;;;;;;;27.30;17.47;;;;;;;;;;5008963;28;20243;-75
2021/12/07 00:40:37;;;;;;;26.77;17.63;;;;;;;;;;4987398;28;21155;-74
2021/12/07 00:43:07;;;;;;;28.53;18.13;;;;;;;;;;4994305;28;20303;-74
2021/12/07 00:45:37;;;;;;;26.17;16.97;;;;;;;;;;4999069;28;20235;-75
2021/12/07 00:48:05;;;;;;;26.17;17.27;;;;;;;;;;4993033;28;20908;-75
2021/12/07 00:50:31;;;;;;;27.37;18.00;;;;;;;;;;4998987;28;20244;-74
2021/12/07 00:53:02;;;;;;;29.97;17.87;;;;;;;;;;5009936;28;20220;-74
2021/12/07 00:55:29;;;;;;;27.57;17.57;;;;;;;;;;4982942;28;20229;-74
2021/12/07 00:57:58;;;;;;;28.07;17.77;;;;;;;;;;4992963;28;20263;-74
2021/12/07 01:00:28;;;;;;;29.90;17.83;;;;;;;;;;4998844;28;20231;-74
2021/12/07 01:02:57;;;;;;;30.33;18.47;;;;;;;;;;4993607;28;20229;-74
2021/12/07 01:05:28;;;;;;;28.10;17.87;;;;;;;;;;5010542;28;20212;-74
2021/12/07 01:27:02;;;;;;;30.17;18.83;;;;;;;;;;4998212;28;20216;-74
2021/12/07 01:29:31;;;;;;;29.33;18.93;;;;;;;;;;5009923;28;20239;-74
2021/12/07 01:32:21;;;;;;;30.97;18.07;;;;;;;;;;5010308;28;20212;-74
2021/12/07 02:00:30;;;;;;;31.50;18.43;;;;;;;;;;5012687;28;20787;-74
2021/12/07 02:03:02;;;;;;;31.57;18.90;;;;;;;;;;4997006;28;20224;-74
2021/12/07 02:05:33;;;;;;;27.57;17.83;;;;;;;;;;4996770;28;20631;-73
2021/12/07 02:08:02;;;;;;;31.30;18.43;;;;;;;;;;5013207;28;20225;-73
2021/12/07 02:10:31;;;;;;;31.40;19.43;;;;;;;;;;5012181;28;20231;-75
2021/12/07 02:13:04;;;;;;;28.10;17.57;;;;;;;;;;4991262;28;20498;-73
2021/12/07 02:15:33;;;;;;;30.17;19.43;;;;;;;;;;4989426;28;20630;-74
2021/12/07 02:18:01;;;;;;;31.43;19.20;;;;;;;;;;5004722;28;20213;-74
2021/12/07 02:20:30;;;;;;;27.80;17.83;;;;;;;;;;4989759;28;20785;-73
2021/12/07 02:22:58;;;;;;;28.83;18.43;;;;;;;;;;5012927;28;20236;-74
2021/12/07 02:25:23;;;;;;;28.10;18.57;;;;;;;;;;4987966;28;20271;-74
2021/12/07 02:27:49;;;;;;;29.87;18.63;;;;;;;;;;5005120;28;20228;-74
2021/12/07 02:30:20;;;;;;;27.13;18.47;;;;;;;;;;4995954;28;20354;-75
2021/12/07 02:32:51;;;;;;;30.77;19.67;;;;;;;;;;5012588;28;20244;-75
2021/12/07 02:35:24;;;;;;;27.00;18.27;;;;;;;;;;4995427;28;20220;-75
2021/12/07 02:37:56;;;;;;;28.50;18.47;;;;;;;;;;5012344;28;20224;-74
2021/12/07 02:40:25;;;;;;;27.47;19.23;;;;;;;;;;4995840;28;20308;-77
2021/12/07 02:42:54;;;;;;;28.93;19.37;;;;;;;;;;5002055;28;20274;-74
2021/12/07 02:45:20;;;;;;;26.63;18.57;;;;;;;;;;4995594;28;20247;-73
2021/12/07 02:47:48;;;;;;;27.53;18.77;;;;;;;;;;5012706;28;20244;-73
2021/12/07 02:50:16;;;;;;;29.43;18.40;;;;;;;;;;5002595;28;20235;-73
2021/12/07 02:52:42;;;;;;;27.90;18.17;;;;;;;;;;4980176;28;20231;-74
2021/12/07 02:55:11;;;;;;;27.57;18.53;;;;;;;;;;5003931;28;20224;-74
2021/12/07 02:57:42;;;;;;;28.03;18.93;;;;;;;;;;5013061;28;20311;-74
2021/12/07 03:00:14;;;;;;;28.43;18.80;;;;;;;;;;4989456;28;20322;-73
2021/12/07 03:02:50;;;;;;;26.43;17.77;;;;;;;;;;5012206;28;20718;-73
2021/12/07 03:08:43;;;;;;;26.30;17.50;;;;;;;;;;5000521;28;20251;-75
2021/12/07 03:27:37;;;;;;;29.23;17.83;;;;;;;;;;5000213;28;20228;-75
2021/12/07 03:30:04;;;;;;;26.17;17.33;;;;;;;;;;4993491;28;20229;-73
2021/12/07 03:32:32;;;;;;;27.23;17.20;;;;;;;;;;4995673;28;20223;-75
2021/12/07 03:34:57;;;;;;;27.83;18.77;;;;;;;;;;4978848;28;20958;-74
2021/12/07 03:37:23;;;;;;;27.20;17.33;;;;;;;;;;4978953;28;20224;-74
2021/12/07 03:39:51;;;;;;;27.43;17.87;;;;;;;;;;4979777;28;20259;-75
2021/12/07 03:42:17;;;;;;;27.07;18.30;;;;;;;;;;5000061;28;20624;-75
2021/12/07 03:44:42;;;;;;;27.73;18.17;;;;;;;;;;4985446;28;20228;-75
2021/12/07 03:47:08;;;;;;;28.77;18.23;;;;;;;;;;5000001;28;20804;-74
2021/12/07 03:49:38;;;;;;;29.53;19.07;;;;;;;;;;4994537;28;20233;-74
2021/12/07 03:52:07;;;;;;;32.23;18.93;;;;;;;;;;4994827;28;20224;-75
2021/12/07 03:54:38;;;;;;;29.57;18.57;;;;;;;;;;5003646;28;20698;-75
2021/12/07 03:57:05;;;;;;;26.97;18.00;;;;;;;;;;4999539;28;20673;-74
2021/12/07 03:59:31;;;;;;;28.37;18.33;;;;;;;;;;5001118;28;21467;-75
2021/12/07 04:01:56;;;;;;;26.53;17.97;;;;;;;;;;5010987;28;20278;-74
2021/12/07 04:04:22;;;;;;;28.20;18.90;;;;;;;;;;4993848;28;20219;-75
2021/12/07 04:06:48;;;;;;;28.73;17.67;;;;;;;;;;4984905;28;20216;-74
2021/12/07 04:09:16;;;;;;;31.77;19.37;;;;;;;;;;4961484;28;20220;-74
2021/12/07 04:11:44;;;;;;;29.30;20.03;;;;;;;;;;4994361;28;20221;-74
2021/12/07 04:14:12;;;;;;;30.63;19.20;;;;;;;;;;5011199;28;20719;-74
2021/12/07 04:16:40;;;;;;;31.87;22.27;;;;;;;;;;4996093;28;20233;-74
2021/12/07 04:19:07;;;;;;;35.67;27.73;;;;;;;;;;4994843;28;20213;-74
2021/12/07 04:21:34;;;;;;;28.83;18.87;;;;;;;;;;5001685;28;20228;-74
2021/12/07 04:24:03;;;;;;;30.00;18.40;;;;;;;;;;5000168;28;20221;-74
2021/12/07 04:26:33;;;;;;;30.53;19.37;;;;;;;;;;5010082;28;20625;-74
2021/12/07 04:28:59;;;;;;;27.80;18.70;;;;;;;;;;4995060;28;20224;-74
2021/12/07 04:31:27;;;;;;;28.13;18.63;;;;;;;;;;5000437;28;20297;-73
2021/12/07 04:33:55;;;;;;;29.90;19.13;;;;;;;;;;4995120;28;20245;-74
2021/12/07 04:36:21;;;;;;;34.40;25.43;;;;;;;;;;4992891;28;20228;-74
2021/12/07 04:38:49;;;;;;;30.13;19.23;;;;;;;;;;5009401;28;20224;-74
2021/12/07 04:41:16;;;;;;;26.53;18.40;;;;;;;;;;4992688;28;20234;-74
2021/12/07 04:43:47;;;;;;;28.40;18.53;;;;;;;;;;4994681;28;20224;-74
2021/12/07 04:46:30;;;;;;;31.73;19.60;;;;;;;;;;4989975;28;20224;-74
2021/12/07 04:49:31;;;;;;;30.53;20.13;;;;;;;;;;5010844;28;20230;-73
2021/12/07 05:00:26;;;;;;;28.50;18.43;;;;;;;;;;4946002;28;20237;-74
2021/12/07 05:02:58;;;;;;;30.57;19.97;;;;;;;;;;4965791;28;20251;-74
2021/12/07 05:05:31;;;;;;;30.77;19.40;;;;;;;;;;4955507;28;20224;-74
2021/12/07 05:08:00;;;;;;;31.07;19.50;;;;;;;;;;5009791;28;20229;-75
2021/12/07 05:10:31;;;;;;;31.33;19.87;;;;;;;;;;4993394;28;20259;-75
2021/12/07 05:39:48;;;;;;;35.63;21.83;;;;;;;;;;5004812;28;20231;-72
2021/12/07 05:42:14;;;;;;;38.83;23.60;;;;;;;;;;5002111;28;20244;-75
2021/12/07 05:44:42;;;;;;;36.90;22.10;;;;;;;;;;5011026;28;20254;-75
2021/12/07 05:47:10;;;;;;;39.67;23.47;;;;;;;;;;4994244;28;20642;-72
2021/12/07 05:49:36;;;;;;;36.73;22.13;;;;;;;;;;5010454;28;20224;-74
2021/12/07 05:52:01;;;;;;;37.33;23.20;;;;;;;;;;5026132;28;20221;-74
2021/12/07 05:54:29;;;;;;;36.93;23.47;;;;;;;;;;4967960;28;20256;-75
2021/12/07 05:57:00;;;;;;;41.10;25.03;;;;;;;;;;5009485;28;20736;-74
2021/12/07 05:59:48;;;;;;;36.93;23.70;;;;;;;;;;5012505;28;20709;-75
2021/12/07 06:02:42;;;;;;;36.30;23.17;;;;;;;;;;5009857;28;20701;-75
2021/12/07 06:05:11;;;;;;;30.93;21.70;;;;;;;;;;5009002;28;20224;-74
2021/12/07 06:07:45;;;;;;;35.50;22.37;;;;;;;;;;5009568;28;20228;-74
2021/12/07 06:10:13;;;;;;;40.43;23.53;;;;;;;;;;5009107;28;20791;-74
2021/12/07 06:12:39;;;;;;;42.13;25.97;;;;;;;;;;5008014;28;20629;-74
2021/12/07 06:15:08;;;;;;;37.33;24.60;;;;;;;;;;4991967;28;20224;-74
2021/12/07 06:17:35;;;;;;;48.27;31.03;;;;;;;;;;4978613;28;20736;-74
2021/12/07 06:20:06;;;;;;;43.73;28.80;;;;;;;;;;4982546;28;21504;-75
2021/12/07 06:22:34;;;;;;;41.50;24.17;;;;;;;;;;4997795;28;20240;-74
2021/12/07 06:25:00;;;;;;;38.07;24.53;;;;;;;;;;5011194;28;21272;-72
2021/12/07 06:27:30;;;;;;;39.57;24.23;;;;;;;;;;4992360;28;20228;-73
2021/12/07 06:29:57;;;;;;;39.63;23.60;;;;;;;;;;4991612;28;20279;-74
2021/12/07 06:32:25;;;;;;;38.27;24.63;;;;;;;;;;4975057;28;20232;-74
2021/12/07 06:34:51;;;;;;;39.60;24.03;;;;;;;;;;4987639;28;20231;-75
2021/12/07 06:37:17;;;;;;;40.43;24.40;;;;;;;;;;4978326;28;20231;-73
2021/12/07 06:39:42;;;;;;;35.00;23.07;;;;;;;;;;5011692;28;20223;-74
2021/12/07 06:42:08;;;;;;;36.07;23.17;;;;;;;;;;5012477;28;20231;-74
2021/12/07 06:44:36;;;;;;;35.30;22.90;;;;;;;;;;4983413;28;21508;-74
2021/12/07 06:47:05;;;;;;;39.03;24.10;;;;;;;;;;5016432;28;20221;-74
2021/12/07 06:49:33;;;;;;;33.33;22.77;;;;;;;;;;5008021;28;20228;-75
2021/12/07 06:52:02;;;;;;;38.40;24.30;;;;;;;;;;4969132;28;20254;-75
2021/12/07 06:54:31;;;;;;;34.03;22.50;;;;;;;;;;4989670;28;20228;-75
2021/12/07 06:57:04;;;;;;;36.93;24.17;;;;;;;;;;4992965;28;20327;-75
2021/12/07 06:59:32;;;;;;;35.67;23.47;;;;;;;;;;5008691;28;20237;-74
2021/12/07 07:02:02;;;;;;;37.50;23.70;;;;;;;;;;5007739;28;20266;-74
2021/12/07 07:04:32;;;;;;;36.10;23.80;;;;;;;;;;4981814;28;20235;-74
2021/12/07 07:06:58;;;;;;;39.50;23.87;;;;;;;;;;5010001;28;20220;-74
2021/12/07 07:09:24;;;;;;;36.43;22.73;;;;;;;;;;4997827;28;20391;-75
2021/12/07 07:11:49;;;;;;;35.40;23.67;;;;;;;;;;5008881;28;20227;-74
2021/12/07 07:14:16;;;;;;;38.30;24.13;;;;;;;;;;5001959;28;20690;-75
2021/12/07 07:16:41;;;;;;;38.67;23.53;;;;;;;;;;4995505;28;20709;-74
2021/12/07 07:19:11;;;;;;;36.27;22.50;;;;;;;;;;4995704;28;20220;-74
2021/12/07 07:21:42;;;;;;;38.60;23.43;;;;;;;;;;4987847;28;20248;-74
2021/12/07 07:24:07;;;;;;;39.63;23.40;;;;;;;;;;4996262;28;20836;-75
2021/12/07 07:26:35;;;;;;;39.03;23.13;;;;;;;;;;5000408;28;20221;-74
2021/12/07 07:29:01;;;;;;;36.13;23.40;;;;;;;;;;5012708;28;20232;-75
2021/12/07 07:31:30;;;;;;;37.10;23.33;;;;;;;;;;4995477;28;20225;-75
2021/12/07 07:34:04;;;;;;;34.37;23.43;;;;;;;;;;5012660;28;20220;-74
2021/12/07 07:36:32;;;;;;;34.00;21.07;;;;;;;;;;5017407;28;20217;-73
2021/12/07 07:39:00;;;;;;;38.67;23.80;;;;;;;;;;4995037;28;20289;-73
2021/12/07 07:41:25;;;;;;;36.40;22.50;;;;;;;;;;4963417;28;20259;-75
2021/12/07 07:43:56;;;;;;;34.60;22.40;;;;;;;;;;4995414;28;20231;-74
2021/12/07 07:46:24;;;;;;;34.93;22.67;;;;;;;;;;4985551;28;20216;-75
2021/12/07 07:48:50;;;;;;;34.20;21.80;;;;;;;;;;5011901;28;20729;-74
2021/12/07 07:51:15;;;;;;;38.57;24.87;;;;;;;;;;5001694;28;20334;-75
2021/12/07 07:53:41;;;;;;;37.47;23.23;;;;;;;;;;4994420;28;20239;-74
2021/12/07 07:56:09;;;;;;;34.23;23.00;;;;;;;;;;4987098;28;20637;-74
2021/12/07 07:58:35;;;;;;;39.53;24.30;;;;;;;;;;5002330;28;20225;-74
2021/12/07 08:01:00;;;;;;;33.37;22.70;;;;;;;;;;4994433;28;20728;-75
2021/12/07 08:03:26;;;;;;;35.00;24.33;;;;;;;;;;4987624;28;20224;-74
2021/12/07 08:05:51;;;;;;;36.13;22.30;;;;;;;;;;5010634;28;20219;-74
2021/12/07 08:08:23;;;;;;;33.17;22.73;;;;;;;;;;4994052;28;20231;-74
2021/12/07 08:10:48;;;;;;;35.50;22.80;;;;;;;;;;5010745;28;20326;-75
2021/12/07 08:13:18;;;;;;;38.23;23.47;;;;;;;;;;4998860;28;20221;-74
2021/12/07 08:15:44;;;;;;;36.20;23.20;;;;;;;;;;4994483;28;20224;-74
2021/12/07 08:18:15;;;;;;;36.43;22.23;;;;;;;;;;4994099;28;20221;-75
2021/12/07 08:20:40;;;;;;;35.13;22.90;;;;;;;;;;5004312;28;20228;-75
2021/12/07 08:23:09;;;;;;;35.40;22.93;;;;;;;;;;4993721;28;20243;-75
2021/12/07 08:25:37;;;;;;;34.60;22.17;;;;;;;;;;5026030;28;20311;-74
2021/12/07 08:28:08;;;;;;;35.70;22.93;;;;;;;;;;4987417;28;20647;-73
2021/12/07 08:30:34;;;;;;;33.87;22.97;;;;;;;;;;4978273;28;20228;-74
2021/12/07 08:33:00;;;;;;;37.77;23.23;;;;;;;;;;4999252;28;20244;-74
2021/12/07 08:35:30;;;;;;;32.63;22.60;;;;;;;;;;5011129;28;20694;-74
2021/12/07 08:37:56;;;;;;;32.30;21.77;;;;;;;;;;5010179;28;20644;-75
2021/12/07 08:40:26;;;;;;;35.07;23.37;;;;;;;;;;5009495;28;20220;-74
2021/12/07 08:42:56;;;;;;;32.17;21.13;;;;;;;;;;5010632;28;20248;-75
2021/12/07 08:45:23;;;;;;;34.00;21.77;;;;;;;;;;4993788;28;20223;-75
2021/12/07 08:47:48;;;;;;;33.07;22.73;;;;;;;;;;5010925;28;20224;-74
2021/12/07 08:50:21;;;;;;;34.03;22.07;;;;;;;;;;4998582;28;20331;-75
2021/12/07 08:52:49;;;;;;;36.10;22.33;;;;;;;;;;5010567;28;20220;-74
2021/12/07 09:00:33;;;;;;;34.63;22.10;;;;;;;;;;5011027;28;20222;-75
2021/12/07 09:03:00;;;;;;;31.73;21.53;;;;;;;;;;4977001;28;20266;-75
2021/12/07 09:05:31;;;;;;;32.10;21.63;;;;;;;;;;5009171;28;20699;-74
2021/12/07 09:07:56;;;;;;;31.20;20.90;;;;;;;;;;4993794;28;20430;-74
2021/12/07 09:10:22;;;;;;;33.50;21.37;;;;;;;;;;4981638;28;20225;-74
2021/12/07 09:12:52;;;;;;;30.20;19.77;;;;;;;;;;4994660;28;20240;-75
2021/12/07 09:15:18;;;;;;;27.10;19.60;;;;;;;;;;5009076;28;20239;-74
2021/12/07 09:17:43;;;;;;;32.97;20.77;;;;;;;;;;5010904;28;20225;-74
2021/12/07 09:20:11;;;;;;;34.40;21.27;;;;;;;;;;5009630;28;20627;-75
2021/12/07 09:22:37;;;;;;;30.57;20.43;;;;;;;;;;5008831;28;20277;-73
2021/12/07 09:25:05;;;;;;;28.93;19.83;;;;;;;;;;5009521;28;20227;-75
2021/12/07 09:27:31;;;;;;;30.70;20.33;;;;;;;;;;4994314;28;20311;-75
2021/12/07 09:29:57;;;;;;;30.30;19.60;;;;;;;;;;4993699;28;20231;-75
2021/12/07 09:32:23;;;;;;;29.43;20.80;;;;;;;;;;5009180;28;20224;-74
2021/12/07 09:34:49;;;;;;;30.17;19.90;;;;;;;;;;5003033;28;20633;-74
2021/12/07 09:37:17;;;;;;;27.97;20.13;;;;;;;;;;5009159;28;20220;-75
2021/12/07 09:39:42;;;;;;;30.23;20.13;;;;;;;;;;4994077;28;20221;-75
2021/12/07 09:42:08;;;;;;;29.00;19.80;;;;;;;;;;4983820;28;20220;-75
2021/12/07 09:44:36;;;;;;;30.03;20.60;;;;;;;;;;5000945;28;20229;-75
2021/12/07 09:47:04;;;;;;;28.07;20.00;;;;;;;;;;4992896;28;20240;-74
2021/12/07 09:49:34;;;;;;;28.57;19.60;;;;;;;;;;5008891;28;20236;-75
2021/12/07 09:52:00;;;;;;;27.23;19.27;;;;;;;;;;4993283;28;20220;-74
2021/12/07 09:54:25;;;;;;;26.47;19.20;;;;;;;;;;5008406;28;20302;-75
2021/12/07 09:56:58;;;;;;;28.50;19.80;;;;;;;;;;4976977;28;20611;-74
2021/12/07 09:59:29;;;;;;;28.60;19.10;;;;;;;;;;4976498;28;20310;-75
2021/12/07 10:01:54;;;;;;;25.93;18.47;;;;;;;;;;4993562;28;21168;-74
2021/12/07 10:04:27;;;;;;;29.37;18.93;;;;;;;;;;4975674;28;20235;-75
2021/12/07 10:06:54;;;;;;;26.77;18.83;;;;;;;;;;5010051;28;20217;-75
2021/12/07 10:09:24;;;;;;;28.53;19.30;;;;;;;;;;5010339;28;20221;-75
2021/12/07 10:11:53;;;;;;;28.57;19.13;;;;;;;;;;4986938;28;20228;-74
2021/12/07 10:14:20;;;;;;;29.13;19.67;;;;;;;;;;4988655;28;21036;-75
2021/12/07 10:16:49;;;;;;;28.43;20.17;;;;;;;;;;5001993;28;20722;-74
2021/12/07 10:19:34;;;;;;;29.10;21.43;;;;;;;;;;5012714;28;20244;-75
2021/12/07 10:22:11;;;;;;;28.87;19.53;;;;;;;;;;5012130;28;21512;-75
2021/12/07 10:24:49;;;;;;;29.50;20.87;;;;;;;;;;5012358;28;20705;-74
2021/12/07 10:27:46;;;;;;;26.10;19.67;;;;;;;;;;5012825;28;20366;-75
2021/12/07 10:30:20;;;;;;;28.13;18.70;;;;;;;;;;4991199;28;20271;-73
2021/12/07 10:33:04;;;;;;;27.00;18.80;;;;;;;;;;5001388;28;20231;-74
2021/12/07 10:35:33;;;;;;;23.30;17.53;;;;;;;;;;4996371;28;21469;-74
2021/12/07 10:38:07;;;;;;;26.63;17.87;;;;;;;;;;5013593;28;20256;-74
2021/12/07 10:40:33;;;;;;;25.77;18.10;;;;;;;;;;5013243;28;20243;-74
2021/12/07 10:43:00;;;;;;;25.57;17.70;;;;;;;;;;5002691;28;20225;-74
2021/12/07 10:45:29;;;;;;;27.43;18.27;;;;;;;;;;4995888;28;20275;-74
2021/12/07 10:47:55;;;;;;;24.67;17.17;;;;;;;;;;4979885;28;20256;-73
2021/12/07 10:50:23;;;;;;;25.03;17.03;;;;;;;;;;5000489;28;20239;-73
2021/12/07 10:52:53;;;;;;;25.07;17.43;;;;;;;;;;4997954;28;20714;-73
2021/12/07 10:55:23;;;;;;;23.17;16.63;;;;;;;;;;5000672;28;20224;-74
2021/12/07 10:58:00;;;;;;;24.07;17.00;;;;;;;;;;5010128;28;20229;-74
2021/12/07 11:00:41;;;;;;;23.20;16.13;;;;;;;;;;4980127;28;20232;-74
2021/12/07 11:03:20;;;;;;;22.13;16.23;;;;;;;;;;4989855;28;20606;-74
2021/12/07 11:05:54;;;;;;;25.70;17.00;;;;;;;;;;4998049;28;20231;-75
2021/12/07 11:08:33;;;;;;;27.97;18.00;;;;;;;;;;4997084;28;21010;-75
2021/12/07 11:10:58;;;;;;;25.80;17.40;;;;;;;;;;5012976;28;20323;-75
2021/12/07 11:13:35;;;;;;;23.73;16.93;;;;;;;;;;4979503;28;20280;-76
2021/12/07 11:16:15;;;;;;;24.00;17.20;;;;;;;;;;5012529;28;20327;-74
2021/12/07 11:18:45;;;;;;;28.03;17.70;;;;;;;;;;4995901;28;20231;-75
2021/12/07 11:21:12;;;;;;;26.93;17.77;;;;;;;;;;5011261;28;20252;-74
2021/12/07 11:23:40;;;;;;;27.27;17.93;;;;;;;;;;4996889;28;20760;-75
2021/12/07 11:31:35;;;;;;;22.20;16.17;;;;;;;;;;5012279;28;20224;-75
2021/12/07 11:34:33;;;;;;;21.47;16.43;;;;;;;;;;4988843;28;20220;-75
2021/12/07 11:37:04;;;;;;;22.83;16.10;;;;;;;;;;5013433;28;20339;-75
2021/12/07 11:39:38;;;;;;;23.17;16.10;;;;;;;;;;4996456;28;20228;-74
2021/12/07 11:42:03;;;;;;;23.03;16.20;;;;;;;;;;4997101;28;20224;-75
2021/12/07 11:44:33;;;;;;;24.83;16.07;;;;;;;;;;5013323;28;20267;-75
2021/12/07 11:47:00;;;;;;;24.77;17.30;;;;;;;;;;5006876;28;20259;-75
2021/12/07 11:49:27;;;;;;;24.70;16.53;;;;;;;;;;4998436;28;20236;-74
2021/12/07 11:51:57;;;;;;;24.63;16.57;;;;;;;;;;5019443;28;20224;-74
2021/12/07 11:54:33;;;;;;;23.50;16.13;;;;;;;;;;5034060;28;20971;-76
2021/12/07 11:56:59;;;;;;;21.83;15.67;;;;;;;;;;4986022;28;20245;-76
2021/12/07 11:59:27;;;;;;;24.73;16.63;;;;;;;;;;5001716;28;20220;-75
2021/12/07 12:01:53;;;;;;;21.43;16.07;;;;;;;;;;4991189;28;20243;-75
2021/12/07 12:04:19;;;;;;;21.63;16.37;;;;;;;;;;5001186;28;20266;-75
2021/12/07 12:06:53;;;;;;;23.77;15.93;;;;;;;;;;4979838;28;20224;-75
2021/12/07 12:09:21;;;;;;;20.77;15.90;;;;;;;;;;5004051;28;20744;-75
2021/12/07 12:11:58;;;;;;;21.70;15.70;;;;;;;;;;5013395;28;20224;-75
2021/12/07 12:14:47;;;;;;;19.53;15.23;;;;;;;;;;4996295;28;20972;-75
2021/12/07 12:17:13;;;;;;;21.57;15.30;;;;;;;;;;5012644;28;20728;-75
2021/12/07 12:20:16;;;;;;;22.17;15.73;;;;;;;;;;4995456;28;20224;-75
2021/12/07 12:22:59;;;;;;;19.87;14.57;;;;;;;;;;5012563;28;20584;-74
2021/12/07 12:25:27;;;;;;;20.40;15.77;;;;;;;;;;5007878;28;22049;-75
2021/12/07 12:27:58;;;;;;;23.57;16.20;;;;;;;;;;4992350;28;20221;-75
2021/12/07 12:30:39;;;;;;;20.67;15.43;;;;;;;;;;4981626;28;20277;-75
2021/12/07 12:33:08;;;;;;;18.97;14.47;;;;;;;;;;5008623;28;20219;-74
2021/12/07 12:35:43;;;;;;;20.00;14.70;;;;;;;;;;4991200;28;20247;-74
2021/12/07 12:38:19;;;;;;;19.57;15.53;;;;;;;;;;4991877;28;20226;-75
2021/12/07 12:41:03;;;;;;;19.87;14.70;;;;;;;;;;4993001;28;20233;-75
2021/12/07 12:43:42;;;;;;;22.53;15.03;;;;;;;;;;4996878;28;20220;-74
2021/12/07 12:46:16;;;;;;;20.70;15.00;;;;;;;;;;5005440;28;20275;-74
2021/12/07 12:48:52;;;;;;;20.80;15.20;;;;;;;;;;4976207;28;20224;-75
2021/12/07 12:51:18;;;;;;;19.50;16.50;;;;;;;;;;5007183;28;20231;-75
2021/12/07 12:53:43;;;;;;;20.80;14.47;;;;;;;;;;4994176;28;20225;-75
2021/12/07 12:56:17;;;;;;;18.97;15.20;;;;;;;;;;4998642;28;20279;-73
2021/12/07 12:58:46;;;;;;;19.87;15.03;;;;;;;;;;5000479;28;20215;-74
2021/12/07 13:01:15;;;;;;;19.47;14.73;;;;;;;;;;5001732;28;20232;-74
2021/12/07 13:03:43;;;;;;;18.40;14.13;;;;;;;;;;5012503;28;20318;-74
2021/12/07 13:06:19;;;;;;;19.00;14.43;;;;;;;;;;5026197;28;20248;-75
2021/12/07 13:09:05;;;;;;;20.33;14.83;;;;;;;;;;4983226;28;20919;-74
2021/12/07 13:11:32;;;;;;;21.50;15.63;;;;;;;;;;5010341;28;20693;-74
2021/12/07 13:14:00;;;;;;;19.87;14.60;;;;;;;;;;4980992;28;20346;-74
2021/12/07 13:16:26;;;;;;;21.17;14.33;;;;;;;;;;4992827;28;20303;-74
2021/12/07 13:19:03;;;;;;;19.83;14.40;;;;;;;;;;5012172;28;20219;-75
2021/12/07 13:21:30;;;;;;;19.07;14.07;;;;;;;;;;5008398;28;20224;-75
2021/12/07 13:23:59;;;;;;;20.93;15.50;;;;;;;;;;4994193;28;20231;-74
2021/12/07 13:26:27;;;;;;;22.13;14.67;;;;;;;;;;5002200;28;20220;-75
2021/12/07 13:29:14;;;;;;;20.93;14.83;;;;;;;;;;4998229;28;20220;-74
2021/12/07 13:31:45;;;;;;;18.07;14.50;;;;;;;;;;5009654;28;20244;-74
2021/12/07 13:34:19;;;;;;;19.80;14.67;;;;;;;;;;4993477;28;20217;-74
2021/12/07 13:36:53;;;;;;;20.73;14.53;;;;;;;;;;4976644;28;20280;-74
2021/12/07 13:39:23;;;;;;;19.80;14.43;;;;;;;;;;4994003;28;20277;-75
2021/12/07 13:42:06;;;;;;;23.70;15.50;;;;;;;;;;5008602;28;20229;-76
2021/12/07 13:44:44;;;;;;;21.10;14.60;;;;;;;;;;4995929;28;20310;-75
2021/12/07 13:47:17;;;;;;;20.30;15.07;;;;;;;;;;5010144;28;20307;-75
2021/12/07 13:50:07;;;;;;;19.47;15.30;;;;;;;;;;4985010;28;20236;-75
2021/12/07 13:52:36;;;;;;;22.27;15.27;;;;;;;;;;5007319;28;20237;-75
2021/12/07 13:55:07;;;;;;;17.67;13.43;;;;;;;;;;4992139;28;20240;-75
2021/12/07 13:57:35;;;;;;;20.17;14.57;;;;;;;;;;5015902;28;20228;-75
2021/12/07 14:00:24;;;;;;;19.93;14.60;;;;;;;;;;4994063;28;20232;-74
2021/12/07 14:02:55;;;;;;;19.03;13.23;;;;;;;;;;5009061;28;20311;-74
2021/12/07 14:05:47;;;;;;;18.87;14.37;;;;;;;;;;5009503;28;20220;-75
2021/12/07 14:08:16;;;;;;;19.60;13.90;;;;;;;;;;5009804;28;20237;-74
2021/12/07 14:10:51;;;;;;;22.33;14.93;;;;;;;;;;5009581;28;20633;-74
2021/12/07 14:13:19;;;;;;;19.70;14.40;;;;;;;;;;5010702;28;20232;-74
2021/12/07 14:15:47;;;;;;;21.20;14.17;;;;;;;;;;4991910;28;20227;-74
2021/12/07 14:18:23;;;;;;;19.57;14.23;;;;;;;;;;5009433;28;21184;-75
2021/12/07 14:20:55;;;;;;;17.63;13.60;;;;;;;;;;5010864;28;20262;-75
2021/12/07 14:23:27;;;;;;;19.93;15.13;;;;;;;;;;4992565;28;21251;-74
2021/12/07 14:26:03;;;;;;;21.17;15.33;;;;;;;;;;5009126;28;20311;-74
2021/12/07 14:28:33;;;;;;;18.67;14.50;;;;;;;;;;4985682;28;20872;-75
2021/12/07 14:31:25;;;;;;;20.63;14.87;;;;;;;;;;5009693;28;20387;-74
2021/12/07 14:33:58;;;;;;;23.10;14.33;;;;;;;;;;5009623;28;20255;-74
2021/12/07 14:36:28;;;;;;;20.77;14.57;;;;;;;;;;4992352;28;20307;-75
2021/12/07 14:38:55;;;;;;;18.27;14.23;;;;;;;;;;5010164;28;20249;-74
2021/12/07 14:41:24;;;;;;;21.00;15.23;;;;;;;;;;4977113;28;20229;-74
2021/12/07 14:43:52;;;;;;;21.70;15.57;;;;;;;;;;4987601;28;20313;-75
2021/12/07 14:46:18;;;;;;;23.03;15.20;;;;;;;;;;5007988;28;20236;-74
2021/12/07 14:48:46;;;;;;;21.40;14.67;;;;;;;;;;4975960;28;20273;-74
2021/12/07 14:51:24;;;;;;;23.13;14.97;;;;;;;;;;5008083;28;20235;-74
2021/12/07 14:53:53;;;;;;;19.80;14.83;;;;;;;;;;5025803;28;20220;-74
2021/12/07 14:56:19;;;;;;;21.07;15.10;;;;;;;;;;4994299;28;20279;-76
2021/12/07 14:58:47;;;;;;;20.87;15.43;;;;;;;;;;4996905;28;20223;-75
2021/12/07 15:01:21;;;;;;;21.17;14.87;;;;;;;;;;5004335;28;20233;-78
2021/12/07 15:03:56;;;;;;;21.57;15.70;;;;;;;;;;4980939;28;20223;-76
2021/12/07 15:06:23;;;;;;;19.37;14.10;;;;;;;;;;4980582;28;20231;-76
2021/12/07 15:08:51;;;;;;;20.03;14.27;;;;;;;;;;4997117;28;20224;-76
2021/12/07 15:11:24;;;;;;;19.27;13.73;;;;;;;;;;5012828;28;20583;-77
2021/12/07 15:13:56;;;;;;;21.00;15.47;;;;;;;;;;4990342;28;20236;-78
2021/12/07 15:16:22;;;;;;;22.10;15.10;;;;;;;;;;5012948;28;20232;-77
2021/12/07 15:18:51;;;;;;;21.33;15.63;;;;;;;;;;5029017;28;20224;-75
2021/12/07 15:21:25;;;;;;;22.40;14.70;;;;;;;;;;4989607;28;20234;-77
2021/12/07 15:23:52;;;;;;;23.30;15.83;;;;;;;;;;5022125;28;20236;-77
2021/12/07 15:26:21;;;;;;;23.27;16.00;;;;;;;;;;5004293;28;20317;-77
2021/12/07 15:28:54;;;;;;;21.67;14.30;;;;;;;;;;4998644;28;20603;-76
2021/12/07 15:31:23;;;;;;;24.47;16.73;;;;;;;;;;5004619;28;20228;-75
2021/12/07 15:33:52;;;;;;;24.37;16.63;;;;;;;;;;5001849;28;20224;-78
2021/12/07 15:36:19;;;;;;;23.73;15.77;;;;;;;;;;4979760;28;20251;-75
2021/12/07 15:38:50;;;;;;;21.73;15.90;;;;;;;;;;5012419;28;20225;-76
2021/12/07 15:41:18;;;;;;;23.67;15.83;;;;;;;;;;4996864;28;20229;-76
2021/12/07 15:43:48;;;;;;;24.37;15.93;;;;;;;;;;5003836;28;20223;-75
2021/12/07 15:46:15;;;;;;;19.07;14.63;;;;;;;;;;4988980;28;20230;-77
2021/12/07 15:48:42;;;;;;;26.17;16.03;;;;;;;;;;5015621;28;20310;-77
2021/12/07 15:51:11;;;;;;;24.50;16.00;;;;;;;;;;5013355;28;20232;-76
2021/12/07 15:53:39;;;;;;;22.87;15.63;;;;;;;;;;5014626;28;20221;-76
2021/12/07 15:56:05;;;;;;;22.80;15.07;;;;;;;;;;5007324;28;20307;-77
2021/12/07 15:58:35;;;;;;;24.50;15.97;;;;;;;;;;5013541;28;20228;-76
2021/12/07 16:01:02;;;;;;;26.67;15.90;;;;;;;;;;4985950;28;20228;-74
2021/12/07 16:03:29;;;;;;;20.83;14.63;;;;;;;;;;4995731;28;20235;-74
2021/12/07 16:05:56;;;;;;;22.00;15.37;;;;;;;;;;4994942;28;20274;-75
2021/12/07 16:08:30;;;;;;;21.40;15.80;;;;;;;;;;5010807;28;20224;-77
2021/12/07 16:10:56;;;;;;;21.80;15.20;;;;;;;;;;4980866;28;20243;-75
2021/12/07 16:13:29;;;;;;;20.07;15.33;;;;;;;;;;4995359;28;20429;-79
2021/12/07 16:16:03;;;;;;;23.07;16.10;;;;;;;;;;4980781;28;20319;-76
2021/12/07 16:18:33;;;;;;;21.63;14.73;;;;;;;;;;4977976;28;20216;-75
2021/12/07 16:20:59;;;;;;;23.43;15.67;;;;;;;;;;5012731;28;20228;-74
2021/12/07 16:23:28;;;;;;;22.77;15.93;;;;;;;;;;4994741;28;20217;-75